Campanya Meteocatpedra
Centenari de l'SMC: 100 anys mirant el cel

Dades de l'estació automàtica Torroja del Priorat

?
?

Resum diari

22:00 TU
Dades diàries de l'estació meteorològica
Temperatura mitjana 19.1 °C
Temperatura màxima 26.2 °C 14:28 TU
Temperatura mínima 14.1 °C 6:01 TU
Humitat relativa mitjana 53%
Precipitació acumulada 0.0 mm
Ratxa màxima del vent (2 m) 22.3 km/h - 292º 17:49 TU
Irradiació solar global 18.4 MJ/m2

El tram horari està expressat en Temps Universal (TU). Cal sumar una hora en horari d'hivern i dues en horari d'estiu per passar a l'hora oficial.

Torroja del Priorat

Metadades estació meteorològica
Municipi Torroja del Priorat
Comarca Priorat
Altitud 300 m
Data alta 27.11.2003
Estat actual Operativa
Dades de període
Període
TU
TM
°C
TX
°C
TN
°C
HRM
%
PPT
mm
VVM (2 m)
km/h
DVM (2 m)
graus
VVX (2 m)
km/h
RS
W/m2
00:00 - 00:30 16.9 17.2 16.5 64 0.0 0.4 304 2.9 0
00:30 - 01:00 16.4 16.5 16.2 66 0.0 1.1 283 7.9 0
01:00 - 01:30 16.3 16.4 16.1 65 0.0 0.7 302 7.2 0
01:30 - 02:00 16.0 16.2 15.8 66 0.0 0.7 284 11.9 0
02:00 - 02:30 15.7 16.1 15.5 67 0.0 0.7 286 6.8 0
02:30 - 03:00 15.4 15.6 15.3 68 0.0 1.1 280 6.1 0
03:00 - 03:30 15.0 15.3 14.9 69 0.0 0.0 289 2.9 0
03:30 - 04:00 14.8 14.9 14.8 70 0.0 0.4 295 5.4 0
04:00 - 04:30 15.0 15.3 14.7 70 0.0 1.1 290 13.0 0
04:30 - 05:00 14.8 15.0 14.7 71 0.0 0.7 256 7.9 0
05:00 - 05:30 14.6 14.8 14.3 72 0.0 0.4 260 5.0 0
05:30 - 06:00 14.3 14.4 14.1 74 0.0 0.4 155 4.3 4
06:00 - 06:30 14.5 14.8 14.1 74 0.0 0.0 243 6.8 37
06:30 - 07:00 15.3 16.4 14.6 71 0.0 0.4 228 5.4 103
07:00 - 07:30 16.3 16.7 16.1 67 0.0 2.5 261 10.8 144
07:30 - 08:00 16.9 17.6 16.3 66 0.0 1.8 269 10.8 237
08:00 - 08:30 18.1 18.6 17.6 62 0.0 4.3 275 13.7 390
08:30 - 09:00 18.7 19.2 18.2 60 0.0 4.0 273 14.4 400
09:00 - 09:30 20.1 20.8 19.5 56 0.0 4.3 275 14.8 600
09:30 - 10:00 20.5 22.1 19.6 54 0.0 4.0 265 14.8 563
10:00 - 10:30 21.8 22.6 21.4 50 0.0 5.0 263 20.9 747
10:30 - 11:00 22.5 23.5 22.1 48 0.0 5.0 266 14.4 753
11:00 - 11:30 23.3 24.0 22.5 45 0.0 4.7 260 14.8 793
11:30 - 12:00 23.9 24.5 23.3 43 0.0 5.4 270 16.6 787
12:00 - 12:30 24.2 24.8 23.7 41 0.0 6.1 262 19.8 800
12:30 - 13:00 24.8 25.8 23.9 39 0.0 4.3 275 20.2 689
13:00 - 13:30 23.7 25.2 23.1 37 0.0 4.3 279 13.3 293
13:30 - 14:00 24.0 25.0 23.1 35 0.0 4.3 265 16.2 388
14:00 - 14:30 24.9 26.2 24.0 33 0.0 5.0 255 16.6 623
14:30 - 15:00 25.2 26.0 24.8 32 0.0 5.8 269 18.0 582
15:00 - 15:30 24.5 25.0 23.9 33 0.0 6.1 270 17.6 465
15:30 - 16:00 23.8 24.1 23.5 33 0.0 5.0 272 17.3 367
16:00 - 16:30 23.1 23.8 22.7 33 0.0 6.8 277 19.8 269
16:30 - 17:00 22.3 22.6 21.8 36 0.0 6.8 279 20.9 168
17:00 - 17:30 21.4 21.8 20.9 39 0.0 5.0 280 18.4 67
17:30 - 18:00 20.5 20.8 20.1 41 0.0 4.0 287 22.3 7
18:00 - 18:30 19.8 20.1 19.5 41 0.0 3.2 273 12.2 0
18:30 - 19:00 19.2 19.5 18.9 44 0.0 2.9 282 12.2 0
19:00 - 19:30 18.6 18.9 18.3 45 0.0 1.4 269 11.2 0
19:30 - 20:00 18.3 18.6 17.8 46 0.0 1.8 270 16.6 0
20:00 - 20:30 18.1 18.2 18.0 48 0.0 1.4 282 10.1 0
20:30 - 21:00 17.8 18.0 17.4 49 0.0 1.1 278 11.5 0
21:00 - 21:30 16.7 17.4 16.1 53 0.0 0.4 284 4.0 0
21:30 - 22:00 16.1 16.2 15.9 56 0.0 1.1 266 8.3 0
22:00 - 22:30 15.7 15.9 15.5 60 0.0 2.2 275 9.0 0

Les dades en taronja només han passat un control de qualitat automàtic. Resta pendent la seva validació definitiva.